Etusivu
METAR-TAF:

METAR-TAF

Lentoasemat :

Växjö, Ruotsi

Leveyspiiri: 56-51N, Pituuspiiri: 014-50E, korkeus merenpinnasta: 199 m

Tämänhetkinen sää

Tämä raportti tehtiin 38 minuuttia sitten, kello 09.20 UTC
Tuuli 12 kn etelästä/lounaasta, vaihdellen etelän ja lounaan välillä
Lämpötila 5°C
Kosteus 93%
Ilmanpaine 1015 hPa
Näkyvyys 10 km tai enemmän
Hajonneita pilviä 700 ft:n korkeudessa

METAR: ESMX 170920Z 20012KT 170V230 9999 BKN007 05/04 Q1015

Aika: 10:58 (09:58 UTC)

Sääennuste

Tämä raportti tehtiin 1 tunti ja 28 minuuttia sitten, kello 08.30 UTC
Ennuste voimassa 17. päivästä klo 09 UTC - 17. päivään klo 18 UTC
Tuuli 12 kn etelästä
Näkyvyys 10 km tai enemmän
Hajonneita pilviä 800 ft:n korkeudessa
Tulossa
17. päivästä klo 09 UTC - 17. päivään klo 10 UTC
Hajanaisia pilviä 1500 ft:n korkeudessa

TAF: ESMX 170830Z 1709/1718 19012KT 9999 BKN008 BECMG 1709/1710 SCT015

Säähavainnot ja -ennusteet yli 4000 lentoasemalta (METAR- ja TAF-raportit).

Käytössä olevat sääasemat on merkitty karttaan keltaisilla ja punaisilla pisteillä.

Aseta hiiri pisteen päälle nähdäksesi sääaseman nimen.

Klikkaa sitten nähdäksesi säähavainnot ja -ennusteet.

Kartan vaihtaminen: klikkaa mustalla rastilla varustettuja vihreitä pisteitä, niin voit zoomata sisään; viivalla varustettua vihreää pistettä, niin voit zoomata ulos tai vihreitä nuolia, niin pääset viereisille kartoille.


METAR-TAF: